Time;durP1;ratioP1;P1;durP2;ratioP2;P2;SDS_P1;SDS_P2;PMS_P1;PMS_P2;Temp;Humidity;BMP_temperature;BMP_pressure;BME280_temperature;BME280_humidity;BME280_pressure;Samples;Min_cycle;Max_cycle;Signal;HPM_P1;HPM_P2
2022/09/03 00:00:00;;;;;;;23.20;3.90;;;;;;;18.32;83.39;97687.41;4972755;28;20034;-52
2022/09/03 00:02:34;;;;;;;30.00;4.32;;;;;;;18.02;85.74;97696.75;4972782;28;20047;-53
2022/09/03 00:05:11;;;;;;;23.73;3.97;;;;;;;18.23;86.81;97696.88;4971431;28;20464;-53
2022/09/03 00:07:39;;;;;;;22.42;3.90;;;;;;;18.60;84.11;97688.72;4972588;28;20073;-52
2022/09/03 00:10:12;;;;;;;23.10;3.83;;;;;;;18.52;85.89;97689.34;4972887;28;20065;-52
2022/09/03 00:12:43;;;;;;;22.27;3.85;;;;;;;18.44;85.42;97689.13;4971187;28;20793;-52
2022/09/03 00:15:10;;;;;;;35.27;4.90;;;;;;;18.37;86.78;97685.28;4971882;28;20027;-54
2022/09/03 00:17:45;;;;;;;27.30;4.20;;;;;;;18.61;85.41;97691.25;4972938;28;20030;-53
2022/09/03 00:20:17;;;;;;;29.75;4.63;;;;;;;18.59;87.64;97685.25;4971695;28;20034;-52
2022/09/03 00:22:47;;;;;;;24.98;4.13;;;;;;;18.67;84.24;97684.66;4974783;28;20023;-53
2022/09/03 00:25:19;;;;;;;28.38;4.30;;;;;;;18.64;85.99;97684.91;4971103;28;20122;-53
2022/09/03 00:27:49;;;;;;;;;;;;;;;18.41;83.92;97694.63;4971577;28;20039;-53
2022/09/03 00:30:17;;;;;;;35.22;4.80;;;;;;;18.63;85.92;97689.34;4972493;28;19988;-53
2022/09/03 00:32:49;;;;;;;27.77;4.10;;;;;;;18.77;85.71;97679.50;4970470;28;20027;-52
2022/09/03 00:35:23;;;;;;;30.92;4.40;;;;;;;18.87;86.67;97680.47;4985757;28;20064;-53
2022/09/03 00:37:51;;;;;;;28.25;4.18;;;;;;;18.61;85.85;97683.34;4970771;28;20126;-53
2022/09/03 00:40:38;;;;;;;29.33;4.30;;;;;;;18.09;85.06;97680.31;4971529;28;20031;-53
2022/09/03 00:43:41;;;;;;;25.75;3.92;;;;;;;18.00;87.42;97685.47;4970222;28;20519;-52
2022/09/03 00:46:44;;;;;;;29.23;4.22;;;;;;;18.06;88.21;97685.00;4928171;28;20134;-54
2022/09/03 00:49:27;;;;;;;;;;;;;;;17.99;89.18;97681.13;4973822;28;20031;-53
2022/09/03 00:52:11;;;;;;;26.02;4.00;;;;;;;17.77;92.26;97679.25;4969848;28;19921;-53
2022/09/03 00:55:15;;;;;;;27.15;4.10;;;;;;;17.86;89.86;97689.16;4973360;28;20539;-53
2022/09/03 00:58:15;;;;;;;26.58;4.20;;;;;;;18.01;91.53;97688.00;4964788;28;20104;-52
2022/09/03 01:00:45;;;;;;;33.22;4.60;;;;;;;17.63;90.26;97688.22;4971202;28;20038;-52
2022/09/03 01:03:36;;;;;;;29.80;4.15;;;;;;;17.60;92.96;97694.53;4969286;28;20030;-52
2022/09/03 01:06:19;;;;;;;30.38;5.10;;;;;;;17.00;95.25;97691.03;4970362;28;20101;-54
2022/09/03 01:09:10;;;;;;;;;;;;;;;16.96;98.70;97689.56;4972227;28;20072;-53
2022/09/03 01:11:55;;;;;;;35.40;5.15;;;;;;;16.68;100.00;97694.13;4972624;28;20258;-54
2022/09/03 01:14:35;;;;;;;25.42;4.20;;;;;;;17.00;100.00;97695.44;4972003;28;20011;-53
2022/09/03 01:17:16;;;;;;;29.48;4.38;;;;;;;16.90;100.00;97685.56;4971236;28;20050;-53
2022/09/03 01:19:56;;;;;;;31.73;4.90;;;;;;;16.95;100.00;97693.16;4970873;28;20028;-52
2022/09/03 01:23:07;;;;;;;25.48;4.13;;;;;;;17.27;100.00;97695.25;4969756;28;20067;-53
2022/09/03 01:25:51;;;;;;;26.95;4.43;;;;;;;17.14;100.00;97698.78;4963577;28;20043;-53
2022/09/03 01:28:41;;;;;;;32.22;4.95;;;;;;;16.92;100.00;97693.38;4970519;28;20014;-55
2022/09/03 01:31:15;;;;;;;37.13;5.25;;;;;;;16.90;100.00;97700.56;4970374;28;20042;-53
2022/09/03 01:33:52;;;;;;;26.52;4.20;;;;;;;17.13;100.00;97689.19;4970116;28;20420;-52
2022/09/03 01:36:38;;;;;;;25.75;4.28;;;;;;;17.30;100.00;97697.66;4970875;28;20120;-52
2022/09/03 01:39:07;;;;;;;32.90;4.38;;;;;;;17.50;100.00;97694.41;4970025;28;20221;-54
2022/09/03 01:44:52;;;;;;;26.73;3.88;;;;;;;18.05;98.30;97693.88;4970592;28;20077;-54
2022/09/03 01:47:39;;;;;;;29.48;4.35;;;;;;;17.68;99.85;97693.97;4971422;28;20662;-53
2022/09/03 01:50:14;;;;;;;25.60;4.00;;;;;;;17.26;100.00;97701.47;4969738;28;20027;-53
2022/09/03 01:52:55;;;;;;;23.90;4.00;;;;;;;16.94;100.00;97691.47;4968975;28;20404;-54
2022/09/03 01:55:32;;;;;;;32.70;6.05;;;;;;;17.07;100.00;97702.78;4971675;28;20029;-52
2022/09/03 01:58:01;;;;;;;33.42;5.03;;;;;;;16.68;100.00;97702.03;4969708;28;20645;-52
2022/09/03 02:00:29;;;;;;;28.23;4.20;;;;;;;16.82;100.00;97697.56;4969909;28;20096;-53
2022/09/03 02:02:54;;;;;;;35.70;5.05;;;;;;;17.14;100.00;97698.78;4970526;28;20109;-53
2022/09/03 02:05:26;;;;;;;28.92;4.18;;;;;;;17.17;100.00;97703.00;4971736;28;20165;-53
2022/09/03 02:08:06;;;;;;;32.00;4.40;;;;;;;16.73;100.00;97710.47;4972048;28;20065;-53
2022/09/03 02:10:54;;;;;;;30.45;4.45;;;;;;;17.22;100.00;97702.63;4969239;28;20069;-53
2022/09/03 02:13:29;;;;;;;34.65;5.25;;;;;;;16.98;100.00;97703.47;4971707;28;20077;-53
2022/09/03 02:15:58;;;;;;;28.90;4.78;;;;;;;16.79;100.00;97708.34;4967801;28;20041;-53
2022/09/03 02:18:36;;;;;;;30.20;4.70;;;;;;;17.08;100.00;97699.22;4969356;28;20507;-53
2022/09/03 02:21:01;;;;;;;40.85;5.68;;;;;;;16.37;100.00;97708.59;4969268;28;20038;-53
2022/09/03 02:23:27;;;;;;;33.65;4.90;;;;;;;16.08;100.00;97713.22;4968240;28;20026;-53
2022/09/03 02:25:58;;;;;;;31.95;4.70;;;;;;;16.41;100.00;97703.97;4969382;28;20401;-53
2022/09/03 02:28:26;;;;;;;43.40;5.88;;;;;;;16.85;100.00;97702.66;4969019;28;20140;-53
2022/09/03 02:30:52;;;;;;;28.58;4.32;;;;;;;16.62;100.00;97701.66;4983571;28;20377;-54
2022/09/03 02:33:17;;;;;;;30.95;4.60;;;;;;;16.65;100.00;97702.28;4969704;28;20507;-53
2022/09/03 02:35:43;;;;;;;27.42;4.35;;;;;;;16.63;100.00;97704.16;4966500;28;20523;-54
2022/09/03 02:38:21;;;;;;;26.30;4.50;;;;;;;16.66;100.00;97706.56;4984378;28;20033;-53
2022/09/03 02:40:46;;;;;;;26.10;4.22;;;;;;;16.29;100.00;97701.25;4970943;28;20042;-53
2022/09/03 02:43:25;;;;;;;22.92;4.03;;;;;;;16.41;100.00;97701.34;4967806;28;20041;-53
2022/09/03 02:45:55;;;;;;;28.73;4.47;;;;;;;16.09;100.00;97701.78;4968896;28;20045;-52
2022/09/03 02:48:23;;;;;;;28.58;4.57;;;;;;;16.36;100.00;97699.88;4986367;28;20030;-52
2022/09/03 02:50:48;;;;;;;31.02;4.78;;;;;;;16.13;100.00;97703.25;4968258;28;20045;-52
2022/09/03 02:53:14;;;;;;;27.98;4.78;;;;;;;16.04;100.00;97695.97;4971461;28;20454;-53
2022/09/03 02:55:40;;;;;;;27.23;4.55;;;;;;;15.95;100.00;97695.66;4973180;28;20076;-52
2022/09/03 02:58:07;;;;;;;23.08;4.13;;;;;;;16.00;100.00;97688.28;4974948;28;20091;-53
2022/09/03 03:00:34;;;;;;;33.47;5.10;;;;;;;16.00;100.00;97696.19;4973435;28;20121;-53
2022/09/03 03:03:00;;;;;;;32.20;4.93;;;;;;;16.24;100.00;97698.09;4972659;28;20035;-53
2022/09/03 03:05:37;;;;;;;28.17;4.63;;;;;;;16.21;100.00;97698.31;4974510;28;20392;-54
2022/09/03 03:08:02;;;;;;;19.50;3.60;;;;;;;15.63;100.00;97691.69;4974173;28;20687;-53
2022/09/03 03:10:28;;;;;;;23.27;3.97;;;;;;;15.81;100.00;97690.50;4973874;28;20046;-53
2022/09/03 03:12:53;;;;;;;34.08;5.38;;;;;;;15.96;100.00;97685.97;4988186;28;20834;-52
2022/09/03 03:15:19;;;;;;;25.25;4.50;;;;;;;16.22;100.00;97689.44;4972513;28;20027;-53
2022/09/03 03:17:44;;;;;;;33.42;5.25;;;;;;;15.98;100.00;97687.56;4971782;28;20117;-53
2022/09/03 03:20:10;;;;;;;28.98;4.80;;;;;;;15.74;100.00;97691.84;4973750;28;20050;-54
2022/09/03 03:22:35;;;;;;;30.55;4.82;;;;;;;15.80;100.00;97694.06;4973742;28;20046;-52
2022/09/03 03:25:00;;;;;;;32.03;4.93;;;;;;;15.65;100.00;97689.81;4972692;28;20057;-53
2022/09/03 03:27:26;;;;;;;40.30;5.30;;;;;;;15.82;100.00;97689.53;4972725;28;20050;-52
2022/09/03 03:29:53;;;;;;;35.42;5.50;;;;;;;15.68;100.00;97689.56;4974654;28;20030;-53
2022/09/03 03:32:19;;;;;;;34.15;5.22;;;;;;;15.72;100.00;97691.09;4972046;28;20081;-53
2022/09/03 03:34:44;;;;;;;30.13;5.10;;;;;;;15.66;100.00;97691.47;4972773;28;20051;-55
2022/09/03 03:37:09;;;;;;;33.20;4.95;;;;;;;15.59;100.00;97683.16;4972209;28;20126;-53
2022/09/03 03:39:35;;;;;;;29.23;4.75;;;;;;;15.59;100.00;97681.38;4972687;28;20270;-52
2022/09/03 03:42:00;;;;;;;36.90;5.50;;;;;;;15.55;100.00;97685.16;4986877;28;20038;-53
2022/09/03 03:44:25;;;;;;;26.17;4.65;;;;;;;15.69;100.00;97686.00;4971539;28;20023;-52
2022/09/03 03:46:51;;;;;;;26.20;4.40;;;;;;;15.73;100.00;97688.34;4986143;28;20040;-53
2022/09/03 03:49:16;;;;;;;27.30;4.63;;;;;;;15.64;100.00;97683.72;4972946;28;20480;-53
2022/09/03 03:51:42;;;;;;;25.05;4.65;;;;;;;15.88;100.00;97686.50;4971432;28;20039;-53
2022/09/03 03:54:07;;;;;;;36.70;5.25;;;;;;;15.41;100.00;97683.44;4960307;28;20071;-53
2022/09/03 03:56:33;;;;;;;24.30;4.30;;;;;;;15.72;100.00;97684.03;4972562;28;20035;-53
2022/09/03 03:58:59;;;;;;;35.03;5.25;;;;;;;15.38;100.00;97683.66;4973897;28;20125;-53
2022/09/03 04:01:26;;;;;;;25.77;4.30;;;;;;;15.41;100.00;97685.22;4972433;28;20441;-53
2022/09/03 04:03:54;;;;;;;22.95;3.97;;;;;;;15.55;100.00;97682.53;4971346;28;20528;-53
2022/09/03 04:06:20;;;;;;;37.03;5.47;;;;;;;15.49;100.00;97685.53;4970383;28;20093;-53
2022/09/03 04:08:47;;;;;;;30.02;4.75;;;;;;;15.35;100.00;97678.59;4972769;28;20174;-53
2022/09/03 04:11:19;;;;;;;32.25;4.72;;;;;;;15.68;100.00;97685.19;4972183;28;20740;-53
2022/09/03 04:13:46;;;;;;;24.67;4.73;;;;;;;15.79;100.00;97681.88;4971575;28;20117;-55
2022/09/03 04:16:14;;;;;;;25.65;4.43;;;;;;;15.92;100.00;97681.88;4972202;28;20370;-53
2022/09/03 04:18:40;;;;;;;25.42;4.40;;;;;;;15.72;100.00;97680.56;4973058;28;20037;-52
2022/09/03 04:21:07;;;;;;;28.08;4.72;;;;;;;15.87;100.00;97682.19;4971361;28;20097;-53
2022/09/03 04:23:38;;;;;;;27.17;4.63;;;;;;;15.68;100.00;97679.94;4971023;28;20037;-53
2022/09/03 04:26:05;;;;;;;27.27;4.65;;;;;;;15.69;100.00;97676.34;4971293;28;20448;-53
2022/09/03 04:28:31;;;;;;;34.85;5.35;;;;;;;15.50;100.00;97670.63;4972793;28;20149;-55
2022/09/03 04:31:05;;;;;;;30.48;5.07;;;;;;;15.40;100.00;97681.75;4971741;28;20122;-55
2022/09/03 04:33:31;;;;;;;36.97;5.35;;;;;;;15.63;100.00;97673.28;4971951;28;20559;-52
2022/09/03 04:36:10;;;;;;;20.23;4.15;;;;;;;15.80;100.00;97679.13;4971102;28;20827;-53
2022/09/03 04:38:38;;;;;;;25.25;4.45;;;;;;;15.69;100.00;97678.97;4970815;28;20435;-53
2022/09/03 04:41:05;;;;;;;29.77;4.65;;;;;;;15.83;100.00;97685.97;4971181;28;20522;-55
2022/09/03 04:43:30;;;;;;;32.20;4.97;;;;;;;15.89;100.00;97690.81;4972816;28;20045;-56
2022/09/03 04:45:58;;;;;;;27.27;4.47;;;;;;;15.93;100.00;97684.38;4970270;28;20043;-53
2022/09/03 04:48:23;;;;;;;20.42;3.92;;;;;;;15.72;100.00;97683.19;4971900;28;20022;-53
2022/09/03 04:50:49;;;;;;;26.67;4.65;;;;;;;15.92;100.00;97693.25;4970595;28;20043;-53
2022/09/03 04:53:14;;;;;;;27.35;4.55;;;;;;;15.93;100.00;97689.66;4971174;28;20034;-52
2022/09/03 04:55:39;;;;;;;32.22;5.10;;;;;;;15.67;100.00;97695.78;4970393;28;20034;-52
2022/09/03 04:58:08;;;;;;;23.70;4.15;;;;;;;16.20;100.00;97701.88;4972652;28;20050;-52
2022/09/03 05:00:35;;;;;;;26.90;4.57;;;;;;;16.04;100.00;97703.88;4970466;28;20508;-53
2022/09/03 05:03:03;;;;;;;24.27;4.30;;;;;;;16.43;100.00;97708.19;4971114;28;20026;-53
2022/09/03 05:05:29;;;;;;;23.27;4.38;;;;;;;16.55;100.00;97709.13;4970959;28;20039;-52
2022/09/03 05:08:00;;;;;;;30.92;4.88;;;;;;;16.83;100.00;97720.38;4971790;28;20033;-53
2022/09/03 05:10:26;;;;;;;29.13;4.68;;;;;;;16.48;100.00;97706.06;4970171;28;20038;-53
2022/09/03 05:13:04;;;;;;;32.15;5.15;;;;;;;16.33;100.00;97713.25;4970215;28;20027;-53
2022/09/03 05:15:31;;;;;;;28.08;4.53;;;;;;;16.77;100.00;97713.72;4972662;28;20034;-53
2022/09/03 05:18:01;;;;;;;37.70;5.25;;;;;;;16.60;100.00;97714.91;4971870;28;20030;-53
2022/09/03 05:20:28;;;;;;;26.15;4.47;;;;;;;17.10;100.00;97715.75;4971838;28;20065;-53
2022/09/03 05:22:55;;;;;;;31.23;5.22;;;;;;;16.49;100.00;97714.81;4972147;28;20030;-53
2022/09/03 05:25:21;;;;;;;24.35;4.05;;;;;;;16.89;100.00;97719.94;4970451;28;20031;-53
2022/09/03 05:27:47;;;;;;;26.33;4.75;;;;;;;17.00;100.00;97701.59;4970291;28;20049;-54
2022/09/03 05:30:13;;;;;;;27.38;4.40;;;;;;;17.22;100.00;97700.88;4970328;28;20027;-55
2022/09/03 05:32:38;;;;;;;20.88;4.18;;;;;;;18.14;100.00;97697.59;4970510;28;20029;-53
2022/09/03 05:35:04;;;;;;;24.75;4.25;;;;;;;18.99;99.54;97692.69;4973502;28;20085;-53
2022/09/03 05:37:30;;;;;;;25.27;4.30;;;;;;;18.66;97.69;97704.94;4969508;28;20074;-53
2022/09/03 05:39:55;;;;;;;24.80;4.07;;;;;;;19.86;91.04;97698.91;4970751;28;20133;-52
2022/09/03 05:42:21;;;;;;;25.38;4.18;;;;;;;19.85;85.06;97698.06;4970666;28;20824;-53
2022/09/03 05:44:48;;;;;;;25.05;4.38;;;;;;;19.63;89.86;97709.56;4969831;28;20038;-53
2022/09/03 05:47:14;;;;;;;28.77;4.32;;;;;;;19.86;85.85;97706.84;4968725;28;20152;-54
2022/09/03 05:49:39;;;;;;;23.10;4.30;;;;;;;18.74;87.69;97700.88;4985567;28;20404;-52
2022/09/03 05:52:04;;;;;;;29.65;4.55;;;;;;;19.38;89.85;97700.16;4968339;28;20039;-53
2022/09/03 05:54:30;;;;;;;22.75;4.00;;;;;;;18.76;91.24;97710.34;4971996;28;20491;-52
2022/09/03 05:56:55;;;;;;;22.70;4.25;;;;;;;19.07;86.74;97711.41;4969350;28;20042;-53
2022/09/03 05:59:20;;;;;;;29.50;4.93;;;;;;;19.36;87.16;97716.16;4970064;28;20694;-53
2022/09/03 06:01:46;;;;;;;19.63;3.70;;;;;;;19.11;88.37;97709.34;4969094;28;20070;-52
2022/09/03 06:04:13;;;;;;;20.23;4.05;;;;;;;18.64;90.23;97712.16;4971062;28;20122;-53
2022/09/03 06:06:41;;;;;;;20.10;3.95;;;;;;;18.53;89.98;97720.09;4968309;28;20535;-52
2022/09/03 06:09:10;;;;;;;20.23;3.80;;;;;;;18.95;92.37;97708.91;4970280;28;20053;-54
2022/09/03 06:11:36;;;;;;;21.40;3.90;;;;;;;18.81;93.11;97715.31;4969675;28;20039;-53
2022/09/03 06:14:05;;;;;;;30.10;4.20;;;;;;;18.41;94.49;97710.47;4969796;28;20110;-53
2022/09/03 06:16:32;;;;;;;25.67;4.35;;;;;;;18.64;94.01;97714.81;4969212;28;20042;-52
2022/09/03 06:18:58;;;;;;;26.13;4.57;;;;;;;20.05;86.94;97720.19;4970369;28;20029;-53
2022/09/03 06:21:24;;;;;;;27.83;4.68;;;;;;;20.88;83.15;97718.44;4970092;28;20089;-53
2022/09/03 06:23:51;;;;;;;18.23;3.55;;;;;;;21.50;77.27;97719.09;4970761;28;20133;-53
2022/09/03 06:26:18;;;;;;;16.15;4.05;;;;;;;20.86;75.33;97715.06;4971325;28;20919;-53
2022/09/03 06:28:44;;;;;;;18.65;3.40;;;;;;;21.54;76.39;97719.69;4969574;28;20034;-53
2022/09/03 06:31:14;;;;;;;21.67;4.00;;;;;;;21.28;74.80;97720.16;4982474;28;20081;-53
2022/09/03 06:33:41;;;;;;;24.67;4.20;;;;;;;22.34;70.13;97720.34;4969797;28;20061;-53
2022/09/03 06:36:10;;;;;;;18.17;3.65;;;;;;;22.94;69.64;97721.78;4970007;28;20124;-53
2022/09/03 06:38:37;;;;;;;22.88;4.07;;;;;;;23.20;64.96;97725.47;4968773;28;20429;-52
2022/09/03 06:41:11;;;;;;;22.00;4.35;;;;;;;23.56;62.28;97736.13;4969329;28;20035;-52
2022/09/03 06:43:41;;;;;;;23.75;4.22;;;;;;;22.68;64.91;97735.75;4970367;28;20061;-52
2022/09/03 06:46:15;;;;;;;14.70;3.30;;;;;;;24.73;60.45;97744.91;4968981;28;20460;-51
2022/09/03 06:48:41;;;;;;;23.75;4.10;;;;;;;25.95;58.66;97746.28;4970146;28;20096;-51
2022/09/03 06:51:09;;;;;;;23.90;4.22;;;;;;;23.58;57.65;97733.31;4971236;28;20137;-52
2022/09/03 06:53:40;;;;;;;20.15;3.95;;;;;;;24.97;56.43;97736.16;4969951;28;20869;-53
2022/09/03 06:56:11;;;;;;;17.35;3.58;;;;;;;25.12;54.31;97750.56;4970885;28;20030;-53
2022/09/03 06:58:41;;;;;;;15.90;3.33;;;;;;;26.54;50.69;97751.41;4985253;28;20043;-54
2022/09/03 07:01:08;;;;;;;20.27;4.00;;;;;;;28.72;47.14;97751.47;4969781;28;20055;-52
2022/09/03 07:03:34;;;;;;;17.70;3.58;;;;;;;25.25;51.44;97749.31;4968367;28;20030;-53
2022/09/03 07:06:07;;;;;;;18.27;3.80;;;;;;;25.37;52.16;97750.69;4969064;28;20045;-53
2022/09/03 07:08:33;;;;;;;16.38;3.72;;;;;;;26.24;47.90;97739.59;4978010;28;20026;-53
2022/09/03 07:11:10;;;;;;;24.63;4.82;;;;;;;25.15;50.65;97741.41;4968719;28;20035;-53
2022/09/03 07:13:44;;;;;;;15.68;4.10;;;;;;;25.83;51.81;97736.91;4968500;28;20828;-53
2022/09/03 07:16:19;;;;;;;15.80;3.47;;;;;;;27.03;49.71;97729.88;4969576;28;20308;-53
2022/09/03 07:18:46;;;;;;;15.07;3.10;;;;;;;26.02;50.31;97727.75;4969702;28;20038;-55
2022/09/03 07:21:17;;;;;;;16.20;3.38;;;;;;;26.24;49.27;97724.38;4969574;28;20049;-56
2022/09/03 07:23:43;;;;;;;14.57;3.30;;;;;;;24.83;52.13;97718.94;4969194;28;20669;-52
2022/09/03 07:26:12;;;;;;;20.13;4.70;;;;;;;25.37;52.65;97716.00;4969852;28;20599;-54
2022/09/03 07:28:39;;;;;;;17.25;4.28;;;;;;;25.06;53.28;97719.19;4968601;28;20117;-53
2022/09/03 07:31:10;;;;;;;28.13;4.90;;;;;;;24.73;53.70;97713.72;4967581;28;20433;-54
2022/09/03 07:33:36;;;;;;;12.50;3.00;;;;;;;25.25;53.31;97711.94;4968407;28;20038;-53
2022/09/03 07:36:05;;;;;;;18.77;3.78;;;;;;;26.61;49.20;97723.00;4967301;28;20058;-54
2022/09/03 07:38:31;;;;;;;16.73;3.47;;;;;;;24.63;54.04;97718.34;4971184;28;20041;-53
2022/09/03 07:40:58;;;;;;;16.77;3.55;;;;;;;24.67;55.26;97717.03;4974271;28;20762;-54
2022/09/03 07:43:28;;;;;;;16.70;3.60;;;;;;;24.03;55.67;97717.25;4973614;28;20034;-52
2022/09/03 07:45:55;;;;;;;16.67;3.35;;;;;;;23.67;57.52;97725.28;4972279;28;20039;-53
2022/09/03 07:48:21;;;;;;;21.80;4.43;;;;;;;22.14;62.01;97723.00;4970563;28;20844;-53
2022/09/03 07:50:47;;;;;;;15.23;3.90;;;;;;;23.11;60.07;97729.00;4972580;28;20128;-54
2022/09/03 07:53:14;;;;;;;24.05;4.30;;;;;;;23.83;59.09;97718.44;4972764;28;20804;-52
2022/09/03 07:55:40;;;;;;;17.27;3.42;;;;;;;24.03;58.00;97722.59;4971748;28;20101;-53
2022/09/03 07:58:06;;;;;;;14.98;3.25;;;;;;;23.52;60.58;97721.44;4972467;28;20440;-53
2022/09/03 08:00:32;;;;;;;20.95;4.03;;;;;;;23.71;59.68;97723.16;4974317;28;20130;-52
2022/09/03 08:03:04;;;;;;;18.38;3.63;;;;;;;25.46;54.58;97722.19;4970452;28;20519;-52
2022/09/03 08:05:31;;;;;;;22.85;4.00;;;;;;;27.06;51.21;97724.19;4971955;28;20045;-53
2022/09/03 08:07:59;;;;;;;16.75;3.65;;;;;;;28.78;46.81;97726.59;4972774;28;20034;-52
2022/09/03 08:10:27;;;;;;;20.30;4.00;;;;;;;27.64;47.76;97731.91;4970587;28;20805;-52
2022/09/03 08:12:52;;;;;;;13.45;3.22;;;;;;;30.65;43.41;97741.97;4971527;28;20033;-53
2022/09/03 08:15:18;;;;;;;12.98;3.15;;;;;;;31.97;40.86;97732.75;4971631;28;20023;-52
2022/09/03 08:17:44;;;;;;;13.55;3.22;;;;;;;29.94;41.53;97740.16;4970979;28;20026;-52
2022/09/03 08:20:09;;;;;;;14.68;3.17;;;;;;;32.04;39.06;97730.94;4971873;28;20105;-52
2022/09/03 08:22:36;;;;;;;17.33;3.60;;;;;;;32.12;38.16;97727.19;4974411;28;20018;-52
2022/09/03 08:25:01;;;;;;;12.43;3.22;;;;;;;29.82;41.67;97728.25;4972395;28;20994;-52
2022/09/03 08:27:27;;;;;;;13.07;3.35;;;;;;;27.12;44.46;97730.69;4986281;28;20763;-54
2022/09/03 08:29:53;;;;;;;13.65;3.40;;;;;;;27.89;45.77;97719.19;4973090;28;20037;-53
2022/09/03 08:32:19;;;;;;;13.10;3.35;;;;;;;30.58;40.81;97719.56;4972111;28;20038;-52
2022/09/03 08:34:45;;;;;;;15.23;3.22;;;;;;;32.06;38.81;97725.34;4973513;28;20528;-53
2022/09/03 08:37:11;;;;;;;13.32;3.35;;;;;;;32.14;38.35;97718.91;4971329;28;20038;-52
2022/09/03 08:39:36;;;;;;;14.15;3.50;;;;;;;29.27;40.98;97728.69;4973536;28;20049;-53
2022/09/03 08:42:32;;;;;;;10.90;2.97;;;;;;;29.54;41.80;97713.69;4970278;28;20038;-52
2022/09/03 08:45:02;;;;;;;10.68;2.92;;;;;;;29.66;42.28;97710.50;4967047;28;20050;-53
2022/09/03 08:47:33;;;;;;;14.25;3.47;;;;;;;28.41;43.38;97717.56;4971623;28;20046;-52
2022/09/03 08:50:17;;;;;;;12.90;3.13;;;;;;;28.98;43.74;97714.25;4970714;28;20109;-52
2022/09/03 08:53:00;;;;;;;15.55;3.60;;;;;;;29.36;42.87;97710.59;4969812;28;20049;-53
2022/09/03 08:55:29;;;;;;;15.05;3.45;;;;;;;28.24;43.57;97714.22;4971844;28;20030;-53
2022/09/03 08:58:03;;;;;;;17.20;3.47;;;;;;;27.27;46.35;97709.38;4973341;28;20038;-52
2022/09/03 09:00:41;;;;;;;12.30;3.00;;;;;;;28.31;45.38;97706.28;4971762;28;20074;-52
2022/09/03 09:03:24;;;;;;;13.05;2.83;;;;;;;30.04;41.72;97712.94;4971385;28;20030;-52
2022/09/03 09:06:09;;;;;;;18.58;4.03;;;;;;;28.84;43.81;97712.44;4971594;28;20043;-52
2022/09/03 09:09:06;;;;;;;26.35;4.50;;;;;;;28.23;44.07;97705.34;4970471;28;20034;-52
2022/09/03 09:11:49;;;;;;;19.25;3.72;;;;;;;28.45;43.75;97702.75;4969074;28;20035;-52
2022/09/03 09:14:14;;;;;;;12.52;2.78;;;;;;;30.43;40.89;97701.66;4971023;28;20153;-53
2022/09/03 09:17:07;;;;;;;15.77;3.58;;;;;;;29.42;42.65;97697.22;4970658;28;20129;-53
2022/09/03 09:19:38;;;;;;;18.35;3.55;;;;;;;29.76;42.92;97700.31;4971948;28;20026;-55
2022/09/03 09:22:17;;;;;;;18.80;3.83;;;;;;;30.95;40.17;97694.09;4969954;28;20074;-52
2022/09/03 09:24:46;;;;;;;24.25;3.65;;;;;;;30.30;40.73;97690.78;4970043;28;20026;-53
2022/09/03 09:27:16;;;;;;;16.83;3.55;;;;;;;31.20;40.40;97690.91;4967202;28;20074;-53
2022/09/03 09:29:46;;;;;;;13.38;3.15;;;;;;;31.93;37.75;97684.81;4969483;28;20072;-52
2022/09/03 09:32:15;;;;;;;20.98;3.92;;;;;;;32.64;34.48;97692.28;4969563;28;20062;-52
2022/09/03 09:34:41;;;;;;;14.48;3.20;;;;;;;31.53;35.93;97677.53;4973040;28;20022;-53
2022/09/03 09:37:14;;;;;;;19.17;3.72;;;;;;;31.91;37.15;97687.75;4969080;28;20042;-52
2022/09/03 09:39:52;;;;;;;13.70;3.45;;;;;;;30.39;40.34;97681.56;4970504;28;20035;-52
2022/09/03 09:42:21;;;;;;;15.63;3.35;;;;;;;31.60;38.53;97670.28;4967527;28;20039;-51
2022/09/03 09:44:46;;;;;;;17.42;3.22;;;;;;;31.54;38.96;97679.22;4971194;28;20023;-52
2022/09/03 09:47:21;;;;;;;22.48;3.85;;;;;;;32.59;36.12;97675.88;4970017;28;20404;-52
2022/09/03 09:50:01;;;;;;;10.60;2.83;;;;;;;31.51;38.62;97666.13;4968448;28;20035;-53
2022/09/03 09:52:30;;;;;;;17.75;3.85;;;;;;;31.93;37.31;97669.50;4968633;28;20047;-52
2022/09/03 09:55:13;;;;;;;19.80;3.65;;;;;;;34.38;33.47;97649.63;4970408;28;20558;-53
2022/09/03 09:57:39;;;;;;;15.52;3.10;;;;;;;34.11;33.02;97664.44;4968458;28;20050;-53
2022/09/03 10:00:11;;;;;;;14.85;3.05;;;;;;;33.94;33.46;97654.19;4968802;28;20038;-52
2022/09/03 10:02:40;;;;;;;18.60;3.22;;;;;;;35.25;31.16;97659.47;4972040;28;20637;-53
2022/09/03 10:05:24;;;;;;;14.27;3.13;;;;;;;32.51;35.49;97662.59;4969636;28;20054;-53
2022/09/03 10:07:58;;;;;;;12.75;2.97;;;;;;;34.10;33.16;97651.97;4970324;28;20053;-53
2022/09/03 10:10:25;;;;;;;12.52;3.30;;;;;;;34.40;32.77;97656.72;4970241;28;20041;-53
2022/09/03 10:13:09;;;;;;;13.60;3.25;;;;;;;31.95;35.26;97658.50;4968760;28;20025;-54
2022/09/03 10:15:47;;;;;;;14.52;3.55;;;;;;;34.62;31.96;97660.63;4969951;28;20516;-54
2022/09/03 10:19:05;;;;;;;15.93;3.45;;;;;;;31.03;36.84;97655.44;4970814;28;20031;-53
2022/09/03 10:21:46;;;;;;;19.17;3.63;;;;;;;29.34;38.44;97658.94;4914531;29;20095;-52
2022/09/03 10:24:38;;;;;;;17.43;3.33;;;;;;;31.90;35.73;97654.53;4968477;28;20736;-53
2022/09/03 10:27:11;;;;;;;15.50;3.22;;;;;;;30.20;37.55;97656.19;4980958;28;20435;-52
2022/09/03 10:29:39;;;;;;;17.88;3.75;;;;;;;31.32;37.05;97647.00;4969925;28;20174;-52
2022/09/03 10:32:10;;;;;;;14.00;3.40;;;;;;;30.63;37.17;97652.53;4969397;28;20055;-54
2022/09/03 10:34:48;;;;;;;13.93;3.22;;;;;;;29.23;38.73;97649.53;4969223;28;20030;-53
2022/09/03 10:37:38;;;;;;;12.80;3.00;;;;;;;30.12;37.93;97641.00;4970276;28;20038;-55
2022/09/03 10:40:30;;;;;;;13.80;3.17;;;;;;;32.69;35.49;97643.03;4968892;28;20038;-52
2022/09/03 10:43:17;;;;;;;17.98;3.78;;;;;;;31.07;36.86;97644.03;4970110;28;20168;-53
2022/09/03 10:45:53;;;;;;;16.02;3.63;;;;;;;32.35;35.57;97635.03;4966766;28;20042;-53
2022/09/03 10:48:28;;;;;;;15.80;3.30;;;;;;;33.99;33.07;97630.00;4968824;28;20026;-53
2022/09/03 10:51:01;;;;;;;19.25;4.03;;;;;;;33.23;34.10;97631.81;4965683;28;20053;-52
2022/09/03 10:53:50;;;;;;;12.27;3.20;;;;;;;32.55;35.18;97634.13;4969758;28;20041;-54
2022/09/03 10:56:57;;;;;;;21.88;4.30;;;;;;;33.65;33.58;97625.91;4967827;28;20062;-53
2022/09/03 10:59:41;;;;;;;15.70;3.10;;;;;;;33.60;34.17;97631.97;4968422;28;20023;-52
2022/09/03 11:02:16;;;;;;;17.17;3.83;;;;;;;32.61;35.84;97617.13;4966168;28;20039;-53
2022/09/03 11:05:06;;;;;;;16.90;3.42;;;;;;;32.64;36.26;97617.53;4969408;28;20049;-52
2022/09/03 11:07:44;;;;;;;15.50;3.53;;;;;;;30.14;39.89;97612.09;4969340;28;20038;-52
2022/09/03 11:10:23;;;;;;;17.77;3.70;;;;;;;30.78;39.59;97612.81;4969089;28;20034;-51
2022/09/03 11:12:58;;;;;;;18.73;3.58;;;;;;;31.20;39.24;97608.22;4969807;28;20035;-51
2022/09/03 11:15:39;;;;;;;17.08;3.65;;;;;;;32.51;37.09;97616.69;4970454;28;20034;-52
2022/09/03 11:18:13;;;;;;;17.88;4.05;;;;;;;33.15;35.75;97610.44;4970175;28;20038;-52
2022/09/03 11:20:41;;;;;;;12.50;3.22;;;;;;;30.46;38.64;97609.81;4971689;28;20038;-53
2022/09/03 11:23:08;;;;;;;18.67;3.70;;;;;;;31.66;37.38;97604.75;4972898;28;20145;-53
2022/09/03 11:25:40;;;;;;;15.10;3.50;;;;;;;31.59;37.37;97611.19;4972375;28;20746;-53
2022/09/03 11:28:27;;;;;;;19.40;3.67;;;;;;;31.75;37.76;97601.88;4971358;28;20037;-54
2022/09/03 11:30:56;;;;;;;15.00;3.60;;;;;;;31.78;37.44;97599.59;4972062;28;20085;-52
2022/09/03 11:33:25;;;;;;;17.80;3.95;;;;;;;31.18;38.70;97591.44;4971441;28;20644;-53
2022/09/03 11:35:59;;;;;;;14.43;3.55;;;;;;;31.16;38.05;97593.50;4970868;28;20130;-52
2022/09/03 11:38:29;;;;;;;21.27;4.50;;;;;;;30.46;39.92;97590.97;4970944;28;20027;-53
2022/09/03 11:40:58;;;;;;;19.25;4.30;;;;;;;30.83;39.00;97583.44;4971646;28;20062;-55
2022/09/03 11:43:23;;;;;;;20.27;4.18;;;;;;;31.87;37.17;97579.47;4972446;28;20137;-53
2022/09/03 11:46:01;;;;;;;19.70;3.78;;;;;;;31.62;37.82;97589.22;4983421;28;20051;-52
2022/09/03 11:48:42;;;;;;;18.08;3.80;;;;;;;31.84;38.08;97581.75;4970939;28;20093;-52